• Join FlightAware (Why Join?)
  • Login
  • US Flag 
01:27AM EDT


 

Airport Tracker/Info


-or-


 

Live Flight TrackerFlight Track Log ✈ TRS507 ✈ 30-Apr-2012 ✈ KMCO - TJSJ / SJU

Flight Track Log - Related Links

Times and Time Zones

All times are in EDT time to prevent confusion due to time zone crossing. See the TRS507 flight status page for this flight to view local times or setup timezone preferences in your user account.

Time Position Orientation Groundspeed Altitude Reporting Facility
EDT Latitude Longitude Course Direction KTS MPH feet Rate Location/Type
07:50PM 28.4000 -81.3000 156° South 167 192 700  Level Orlando TRACON
07:51PM 28.3333 -81.2667 127° Southeast 234 269 2,500 1,860 Climbing Orlando TRACON
07:52PM 28.3000 -81.2167 109° East 244 281 4,900 2,700 Climbing Orlando TRACON
07:54PM 28.2575 -81.0803 131° Southeast 239 275 10,500 2,520 Climbing Miami Center
07:55PM 28.2031 -81.0100 129° Southeast 289 333 12,600 2,400 Climbing Miami Center
07:56PM 28.1469 -80.9325 128° Southeast 321 369 15,400 2,640 Climbing Miami Center
07:57PM 28.0867 -80.8458 117° Southeast 333 383 17,900 2,220 Climbing Miami Center
07:58PM 28.0394 -80.7428 107° East 352 405 19,900 2,040 Climbing Miami Center
07:59PM 28.0092 -80.6289 106° East 362 417 22,000 2,100 Climbing Miami Center
08:00PM 27.9750 -80.4917 123° Southeast 397 457 24,100 1,800 Climbing Miami Center
08:01PM 27.9111 -80.3814 139° Southeast 409 471 25,700 1,620 Climbing Miami Center
08:02PM 27.8253 -80.2967 147° Southeast 431 496 27,400 1,800 Climbing Miami Center
08:03PM 27.7206 -80.2206 148° Southeast 437 503 29,300 1,860 Climbing Miami Center
08:04PM 27.6117 -80.1447 148° Southeast 450 518 31,200 2,040 Climbing Miami Center
08:05PM 27.5092 -80.0717 149° Southeast 445 512 33,400 1,920 Climbing Miami Center
08:06PM 27.4083 -80.0033 146° Southeast 437 503 35,100 1,500 Climbing Miami Center
08:07PM 27.3075 -79.9258 127° Southeast 437 503 36,400 1,200 Climbing Miami Center
08:08PM 27.2347 -79.8164 123° Southeast 425 489 37,600 1,080 Climbing Miami Center
08:09PM 27.1581 -79.6861 123° Southeast 447 514 38,600 900 Climbing Miami Center
08:10PM 27.0892 -79.5678 123° Southeast 454 522 39,400 660 Climbing Miami Center
08:11PM 27.0203 -79.4494 124° Southeast 454 522 40,000 300 Climbing Miami Center
08:12PM 26.9553 -79.3408 124° Southeast 454 522 40,000  Level Miami Center
08:13PM 26.8842 -79.2231 124° Southeast 459 528 40,000  Level Miami Center
08:14PM 26.8131 -79.1028 123° Southeast 459 528 40,000  Level Miami Center
08:15PM 26.7439 -78.9853 124° Southeast 459 528 40,000  Level Miami Center
08:16PM 26.6703 -78.8631 124° Southeast 464 534 40,000  Level Miami Center
08:17PM 26.6008 -78.7481 126° Southeast 464 534 40,000  Level Miami Center
08:18PM 26.5208 -78.6236 122° Southeast 458 527 40,000  Level Miami Center
08:19PM 26.4514 -78.4994 123° Southeast 458 527 40,000 -120 Level Miami Center
08:20PM 26.3817 -78.3803 124° Southeast 463 533 39,800 -540 Descending Miami Center
08:21PM 26.3117 -78.2636 123° Southeast 463 533 39,000 -420 Descending Miami Center
08:22PM 26.2417 -78.1444 123° Southeast 453 521 39,000  Level Miami Center
08:23PM 26.1739 -78.0303 124° Southeast 453 521 39,000  Level Miami Center
08:24PM 26.1036 -77.9139 123° Southeast 453 521 39,000  Level Miami Center
08:25PM 26.0417 -77.8092 123° Southeast 448 516 39,000  Level Miami Center
08:26PM 25.9714 -77.6908 124° Southeast 448 516 39,000  Level Miami Center
08:27PM 25.9008 -77.5725 124° Southeast 448 516 39,000  Level Miami Center
08:28PM 25.8219 -77.4450 124° Southeast 453 521 39,000  Level Miami Center
08:29PM 25.7514 -77.3294 124° Southeast 453 521 39,000  Level Miami Center
08:30PM 25.6806 -77.2117 125° Southeast 453 521 39,000  Level Miami Center
08:31PM 25.6097 -77.0983 124° Southeast 447 514 39,000  Level Miami Center
08:32PM 25.5389 -76.9831 124° Southeast 447 514 39,000  Level Miami Center
08:33PM 25.4700 -76.8703 124° Southeast 447 514 39,000  Level Miami Center
08:34PM 25.3989 -76.7553 124° Southeast 447 514 39,000  Level Miami Center
08:35PM 25.3278 -76.6381 124° Southeast 447 514 39,000  Level Miami Center
08:36PM 25.2586 -76.5256 124° Southeast 447 514 39,000  Level Miami Center
08:37PM 25.1892 -76.4133 124° Southeast 447 514 39,000  Level Miami Center
08:38PM 25.1178 -76.2986 126° Southeast 447 514 39,000  Level Miami Center
08:39PM 25.0464 -76.1889 123° Southeast 447 514 39,000  Level Miami Center
08:40PM 24.9767 -76.0725 125° Southeast 447 514 39,000  Level Miami Center
08:41PM 24.9133 -75.9742 124° Southeast 447 514 39,000  Level Miami Center
08:42PM 24.8439 -75.8625 124° Southeast 446 513 39,000  Level Miami Center
08:43PM 24.7719 -75.7464 126° Southeast 446 513 39,000  Level Miami Center
08:44PM 24.7000 -75.6372 123° Southeast 446 513 39,000  Level Miami Center
08:45PM 24.6300 -75.5192 125° Southeast 446 513 39,000  Level Miami Center
08:46PM 24.5578 -75.4056 125° Southeast 446 513 39,000  Level Miami Center
08:47PM 24.4836 -75.2878 125° Southeast 446 513 39,000  Level Miami Center
08:48PM 24.4111 -75.1747 124° Southeast 451 519 39,000  Level Miami Center
08:49PM 24.3389 -75.0592 125° Southeast 451 519 39,000  Level Miami Center
08:50PM 24.2642 -74.9442 125° Southeast 456 525 39,000  Level Miami Center
08:51PM 24.1917 -74.8292 125° Southeast 456 525 39,000  Level Miami Center
08:52PM 24.1169 -74.7142 125° Southeast 462 532 39,000  Level Miami Center
08:53PM 24.0400 -74.5950 125° Southeast 462 532 39,000  Level Miami Center
08:54PM 23.9692 -74.4825 126° Southeast 462 532 39,000  Level Miami Center
08:55PM 23.8919 -74.3658 125° Southeast 462 532 39,000  Level Miami Center
08:56PM 23.8192 -74.2514 125° Southeast 462 532 39,000  Level Miami Center
08:57PM 23.7439 -74.1350 125° Southeast 468 539 39,000  Level Miami Center
08:58PM 23.6708 -74.0231 125° Southeast 468 539 39,000  Level Miami Center
08:59PM 23.5953 -73.9047 127° Southeast 468 539 39,000  Level Miami Center
09:00PM 23.5158 -73.7911 125° Southeast 468 539 39,000  Level Miami Center
09:01PM 23.4422 -73.6750 126° Southeast 468 539 39,000  Level Miami Center
09:02PM 23.3644 -73.5594 125° Southeast 473 544 39,000  Level Miami Center
09:03PM 23.2889 -73.4414 126° Southeast 473 544 39,000  Level Miami Center
09:04PM 23.2044 -73.3172 120° Southeast 468 539 39,000  Level Miami Center
09:05PM 23.1411 -73.1969 133° Southeast 468 539 39,000  Level Miami Center
09:06PM 23.0464 -73.0847 124° Southeast 468 539 39,000  Level Miami Center
09:07PM 22.9811 -72.9806 125° Southeast 474 545 39,000  Level Miami Center
09:08PM 22.9050 -72.8633 125° Southeast 474 545 39,000  Level Miami Center
09:09PM 22.8286 -72.7464 126° Southeast 474 545 39,000  Level Miami Center
09:10PM 22.7525 -72.6339 125° Southeast 474 545 39,000  Level Miami Center
09:11PM 22.6761 -72.5172 127° Southeast 474 545 39,000  Level Miami Center
09:12PM 22.5956 -72.4031 126° Southeast 474 545 39,000  Level Miami Center
09:13PM 22.5169 -72.2867 125° Southeast 479 551 39,000  Level Miami Center
09:14PM 22.4403 -72.1681 126° Southeast 479 551 39,000  Level Miami Center
09:15PM 22.3614 -72.0519 126° Southeast 484 557 39,000  Level Miami Center
09:16PM 22.2825 -71.9358 126° Southeast 484 557 39,000  Level Miami Center
09:17PM 22.2056 -71.8200 127° Southeast 484 557 39,000  Level Miami Center
09:18PM 22.1267 -71.7067 126° Southeast 484 557 39,000  Level Miami Center
09:19PM 22.0478 -71.5911 126° Southeast 484 557 39,000  Level Miami Center
09:20PM 21.9706 -71.4756 126° Southeast 484 557 39,000  Level Miami Center
09:21PM 21.8914 -71.3603 126° Southeast 484 557 39,000  Level Miami Center
09:22PM 21.8164 -71.2494 126° Southeast 479 551 39,000  Level Miami Center
09:23PM 21.7392 -71.1344 126° Southeast 479 551 39,000  Level Miami Center
09:24PM 21.6619 -71.0217 127° Southeast 474 545 39,000  Level Miami Center
09:25PM 21.5758 -70.8983 127° Southeast 474 545 39,000  Level Miami Center
09:26PM 21.4961 -70.7839 127° Southeast 474 545 39,000  Level Miami Center
09:27PM 21.4167 -70.6694 127° Southeast 474 545 39,000  Level Miami Center
09:28PM 21.3369 -70.5550 127° Southeast 474 545 39,000  Level Miami Center
09:29PM 21.2569 -70.4408 126° Southeast 474 545 39,000  Level Miami Center
09:30PM 21.1792 -70.3269 127° Southeast 474 545 39,000  Level Miami Center
09:31PM 21.0972 -70.2108 126° Southeast 479 551 39,000  Level Miami Center
09:32PM 21.0172 -70.0950 127° Southeast 485 558 39,000  Level Miami Center
09:33PM 20.9369 -69.9792 127° Southeast 485 558 39,000  Level Miami Center
09:34PM 20.8569 -69.8658 127° Southeast 490 564 39,000  Level Miami Center
09:35PM 20.7744 -69.7481 127° Southeast 490 564 39,000  Level Miami Center
09:36PM 20.6919 -69.6328 126° Southeast 490 564 39,000  Level Miami Center
09:37PM 20.6136 -69.5175 127° Southeast 490 564 39,000  Level Miami Center
09:38PM 20.5311 -69.4025 128° Southeast 490 564 39,000  Level Miami Center
09:39PM 20.4464 -69.2878 126° Southeast 490 564 39,000  Level Miami Center
09:40PM 20.3678 -69.1708 126° Southeast 490 564 39,000  Level Miami Center
09:41PM 20.2892 -69.0539 129° Southeast 490 564 39,000  Level Miami Center
09:42PM 20.2044 -68.9417 125° Southeast 490 564 39,000  Level Miami Center
09:43PM 20.1256 -68.8228 129° Southeast 490 564 39,000  Level Miami Center
09:44PM 20.0406 -68.7111 128° Southeast 490 564 39,000  Level Miami Center
09:45PM 19.9597 -68.5992 124° Southeast 490 564 39,000  Level Miami Center
09:46PM 19.8850 -68.4825 130° Southeast 490 564 39,000  Level Miami Center
09:47PM 19.7981 -68.3736 127° Southeast 485 558 39,000  Level Miami Center
09:48PM 19.7169 -68.2597 126° Southeast 490 564 39,000  Level Miami Center
09:49PM 19.6378 -68.1461 128° Southeast 490 564 39,000  Level Miami Center
09:50PM 19.5547 -68.0350 128° Southeast 490 564 39,000 -480 Level Miami Center
09:51PM 19.4736 -67.9239 132° Southeast 485 558 38,100 -1,680 Descending Miami Center
09:52PM 19.3833 -67.8167 127° Southeast 480 552 35,700 -2,760 Descending San Juan Center
09:53PM 19.3000 -67.7000 127° Southeast 490 564 32,700 -2,580 Descending San Juan Center
09:54PM 19.2167 -67.5833 114° Southeast 480 552 30,500 -2,340 Descending San Juan Center
09:55PM 19.1667 -67.4667 118° Southeast 470 541 28,100 -2,460 Descending San Juan Center
09:56PM 19.1000 -67.3333 114° Southeast 460 529 25,600 -2,340 Descending San Juan Center
09:57PM 19.0500 -67.2167 118° Southeast 440 506 23,400 -2,220 Descending San Juan Center
09:58PM 19.0000 -67.1167 118° Southeast 430 495 21,200 -2,280 Descending San Juan Center
09:59PM 18.9333 -66.9833 113° Southeast 420 483 18,900 -2,100 Descending San Juan Center
10:00PM 18.9000 -66.9000 118° Southeast 390 449 17,000 -2,100 Descending San Juan Center
10:01PM 18.8500 -66.8000 118° Southeast 370 426 14,800 -2,100 Descending San Juan Center
10:02PM 18.8000 -66.7000 118° Southeast 360 414 12,800 -1,680 Descending San Juan Center
10:03PM 18.7500 -66.6000 118° Southeast 320 368 11,500 -1,500 Descending San Juan Center
10:04PM 18.7167 -66.5333 113° Southeast 300 345 9,900 -1,740 Descending San Juan Center
10:05PM 18.6833 -66.4500 118° Southeast 280 322 8,000 -1,800 Descending San Juan Center
10:06PM 18.6500 -66.3833 145° Southeast 270 311 6,300 -1,740 Descending San Juan Center
10:07PM 18.5833 -66.3333 137° Southeast 270 311 4,500 -1,500 Descending San Juan Center
10:08PM 18.5333 -66.2833 137° Southeast 260 299 3,300 -1,140 Descending San Juan Center
10:09PM 18.4833 -66.2333 137° Southeast 230 265 2,300 -660 Descending San Juan Center
10:10PM 18.4500 -66.2000 109° East 180 207 2,000 -180 Descending San Juan Center
10:11PM 18.4333 -66.1500 90° East 160 184 2,000  Level San Juan Center
10:12PM 18.4333 -66.1167 90° East 120 138 2,000 -300 Level San Juan Center
10:13PM 18.4333 -66.0833 90° East 110 127 1,400 -600 Descending San Juan Center
10:14PM 18.4333 -66.0500 90° East 120 138 800 -600 Descending San Juan Center